sensor_id;sensor_type;location;lat;lon;timestamp;P1;durP1;ratioP1;P2;durP2;ratioP2
27491;SDS011;14927;51.210;6.838;2023-02-01T00:02:25;19.05;;;7.13;;
27491;SDS011;14927;51.210;6.838;2023-02-01T00:05:10;17.70;;;6.70;;
27491;SDS011;14927;51.210;6.838;2023-02-01T00:07:55;21.83;;;7.30;;
27491;SDS011;14927;51.210;6.838;2023-02-01T00:10:39;22.55;;;7.82;;
27491;SDS011;14927;51.210;6.838;2023-02-01T00:13:24;24.63;;;8.73;;
27491;SDS011;14927;51.210;6.838;2023-02-01T00:16:22;17.10;;;8.07;;
27491;SDS011;14927;51.210;6.838;2023-02-01T00:19:19;20.45;;;8.05;;
27491;SDS011;14927;51.210;6.838;2023-02-01T00:22:04;23.83;;;8.38;;
27491;SDS011;14927;51.210;6.838;2023-02-01T00:24:48;19.58;;;8.88;;
27491;SDS011;14927;51.210;6.838;2023-02-01T00:27:33;20.55;;;8.52;;
27491;SDS011;14927;51.210;6.838;2023-02-01T00:30:18;23.60;;;9.13;;
27491;SDS011;14927;51.210;6.838;2023-02-01T00:33:02;19.27;;;8.25;;
27491;SDS011;14927;51.210;6.838;2023-02-01T00:35:47;18.27;;;9.27;;
27491;SDS011;14927;51.210;6.838;2023-02-01T00:38:33;19.08;;;8.65;;
27491;SDS011;14927;51.210;6.838;2023-02-01T00:41:20;16.40;;;8.05;;
27491;SDS011;14927;51.210;6.838;2023-02-01T00:44:06;21.63;;;8.75;;
27491;SDS011;14927;51.210;6.838;2023-02-01T00:46:50;25.35;;;8.52;;
27491;SDS011;14927;51.210;6.838;2023-02-01T00:49:35;23.85;;;8.30;;
27491;SDS011;14927;51.210;6.838;2023-02-01T00:52:19;20.25;;;7.05;;
27491;SDS011;14927;51.210;6.838;2023-02-01T00:55:04;25.27;;;8.35;;
27491;SDS011;14927;51.210;6.838;2023-02-01T00:57:49;22.48;;;7.63;;
27491;SDS011;14927;51.210;6.838;2023-02-01T01:00:34;20.00;;;7.20;;
27491;SDS011;14927;51.210;6.838;2023-02-01T01:03:19;19.42;;;7.10;;
27491;SDS011;14927;51.210;6.838;2023-02-01T01:06:05;26.00;;;7.10;;
27491;SDS011;14927;51.210;6.838;2023-02-01T01:08:53;22.70;;;6.07;;
27491;SDS011;14927;51.210;6.838;2023-02-01T01:11:42;17.80;;;5.50;;
27491;SDS011;14927;51.210;6.838;2023-02-01T01:14:29;19.67;;;5.43;;
27491;SDS011;14927;51.210;6.838;2023-02-01T01:17:14;21.50;;;6.07;;
27491;SDS011;14927;51.210;6.838;2023-02-01T01:19:59;16.45;;;5.78;;
27491;SDS011;14927;51.210;6.838;2023-02-01T01:22:43;13.75;;;5.05;;
27491;SDS011;14927;51.210;6.838;2023-02-01T01:25:28;20.60;;;5.32;;
27491;SDS011;14927;51.210;6.838;2023-02-01T01:28:12;16.05;;;5.10;;
27491;SDS011;14927;51.210;6.838;2023-02-01T01:30:57;23.45;;;5.53;;
27491;SDS011;14927;51.210;6.838;2023-02-01T01:33:42;15.65;;;4.40;;
27491;SDS011;14927;51.210;6.838;2023-02-01T01:36:28;24.80;;;4.90;;
27491;SDS011;14927;51.210;6.838;2023-02-01T01:39:13;21.92;;;5.47;;
27491;SDS011;14927;51.210;6.838;2023-02-01T01:41:57;18.55;;;4.97;;
27491;SDS011;14927;51.210;6.838;2023-02-01T01:47:51;16.13;;;4.25;;
27491;SDS011;14927;51.210;6.838;2023-02-01T01:50:41;17.85;;;4.20;;
27491;SDS011;14927;51.210;6.838;2023-02-01T01:53:33;15.38;;;3.97;;
27491;SDS011;14927;51.210;6.838;2023-02-01T01:56:29;13.73;;;3.40;;
27491;SDS011;14927;51.210;6.838;2023-02-01T01:59:16;16.30;;;3.97;;
27491;SDS011;14927;51.210;6.838;2023-02-01T02:02:00;14.63;;;3.20;;
27491;SDS011;14927;51.210;6.838;2023-02-01T02:04:45;18.20;;;4.22;;
27491;SDS011;14927;51.210;6.838;2023-02-01T02:07:32;22.02;;;4.22;;
27491;SDS011;14927;51.210;6.838;2023-02-01T02:10:22;19.65;;;3.58;;
27491;SDS011;14927;51.210;6.838;2023-02-01T02:13:37;16.67;;;3.90;;
27491;SDS011;14927;51.210;6.838;2023-02-01T02:20:05;13.05;;;3.20;;
27491;SDS011;14927;51.210;6.838;2023-02-01T02:32:32;15.43;;;3.45;;
27491;SDS011;14927;51.210;6.838;2023-02-01T02:42:11;22.90;;;3.90;;
27491;SDS011;14927;51.210;6.838;2023-02-01T02:52:12;14.25;;;3.78;;
27491;SDS011;14927;51.210;6.838;2023-02-01T02:55:15;21.52;;;4.13;;
27491;SDS011;14927;51.210;6.838;2023-02-01T02:58:00;14.18;;;3.30;;
27491;SDS011;14927;51.210;6.838;2023-02-01T03:01:07;20.67;;;4.43;;
27491;SDS011;14927;51.210;6.838;2023-02-01T03:04:10;16.50;;;3.13;;
27491;SDS011;14927;51.210;6.838;2023-02-01T03:07:14;17.23;;;3.75;;
27491;SDS011;14927;51.210;6.838;2023-02-01T03:14:08;21.05;;;3.47;;
27491;SDS011;14927;51.210;6.838;2023-02-01T03:16:54;21.08;;;3.85;;
27491;SDS011;14927;51.210;6.838;2023-02-01T03:19:49;20.80;;;4.25;;
27491;SDS011;14927;51.210;6.838;2023-02-01T03:22:36;23.52;;;4.45;;
27491;SDS011;14927;51.210;6.838;2023-02-01T03:25:27;21.75;;;4.28;;
27491;SDS011;14927;51.210;6.838;2023-02-01T03:28:15;24.10;;;4.23;;
27491;SDS011;14927;51.210;6.838;2023-02-01T03:31:04;20.73;;;4.32;;
27491;SDS011;14927;51.210;6.838;2023-02-01T03:33:50;21.58;;;4.13;;
27491;SDS011;14927;51.210;6.838;2023-02-01T03:36:36;18.60;;;4.65;;
27491;SDS011;14927;51.210;6.838;2023-02-01T03:42:35;23.67;;;4.22;;
27491;SDS011;14927;51.210;6.838;2023-02-01T03:45:26;16.83;;;3.53;;
27491;SDS011;14927;51.210;6.838;2023-02-01T03:48:18;17.95;;;3.75;;
27491;SDS011;14927;51.210;6.838;2023-02-01T03:51:06;25.83;;;4.63;;
27491;SDS011;14927;51.210;6.838;2023-02-01T03:53:53;20.15;;;4.32;;
27491;SDS011;14927;51.210;6.838;2023-02-01T03:56:41;21.83;;;3.75;;
27491;SDS011;14927;51.210;6.838;2023-02-01T03:59:28;17.95;;;3.33;;
27491;SDS011;14927;51.210;6.838;2023-02-01T04:02:14;20.20;;;3.88;;
27491;SDS011;14927;51.210;6.838;2023-02-01T04:04:59;16.02;;;3.83;;
27491;SDS011;14927;51.210;6.838;2023-02-01T04:07:43;18.45;;;4.22;;
27491;SDS011;14927;51.210;6.838;2023-02-01T04:10:28;19.83;;;4.05;;
27491;SDS011;14927;51.210;6.838;2023-02-01T04:13:13;20.52;;;3.80;;
27491;SDS011;14927;51.210;6.838;2023-02-01T04:15:58;18.15;;;3.25;;
27491;SDS011;14927;51.210;6.838;2023-02-01T04:18:42;23.77;;;4.63;;
27491;SDS011;14927;51.210;6.838;2023-02-01T04:21:28;22.00;;;3.70;;
27491;SDS011;14927;51.210;6.838;2023-02-01T04:24:15;21.52;;;4.40;;
27491;SDS011;14927;51.210;6.838;2023-02-01T04:27:01;22.40;;;3.90;;
27491;SDS011;14927;51.210;6.838;2023-02-01T04:29:48;22.48;;;3.40;;
27491;SDS011;14927;51.210;6.838;2023-02-01T04:32:34;20.42;;;4.35;;
27491;SDS011;14927;51.210;6.838;2023-02-01T04:35:21;22.13;;;4.00;;
27491;SDS011;14927;51.210;6.838;2023-02-01T04:38:05;25.67;;;4.25;;
27491;SDS011;14927;51.210;6.838;2023-02-01T04:40:50;22.33;;;3.70;;
27491;SDS011;14927;51.210;6.838;2023-02-01T04:43:35;16.42;;;3.42;;
27491;SDS011;14927;51.210;6.838;2023-02-01T04:46:20;18.90;;;4.28;;
27491;SDS011;14927;51.210;6.838;2023-02-01T04:49:05;20.63;;;4.28;;
27491;SDS011;14927;51.210;6.838;2023-02-01T04:51:51;23.30;;;4.15;;
27491;SDS011;14927;51.210;6.838;2023-02-01T04:54:37;19.70;;;4.22;;
27491;SDS011;14927;51.210;6.838;2023-02-01T04:57:21;21.95;;;3.67;;
27491;SDS011;14927;51.210;6.838;2023-02-01T05:00:07;26.75;;;3.88;;
27491;SDS011;14927;51.210;6.838;2023-02-01T05:02:52;25.10;;;4.60;;
27491;SDS011;14927;51.210;6.838;2023-02-01T05:05:37;30.73;;;4.65;;
27491;SDS011;14927;51.210;6.838;2023-02-01T05:08:22;22.15;;;4.40;;
27491;SDS011;14927;51.210;6.838;2023-02-01T05:11:09;20.25;;;4.10;;
27491;SDS011;14927;51.210;6.838;2023-02-01T05:14:13;23.00;;;4.53;;
27491;SDS011;14927;51.210;6.838;2023-02-01T05:16:58;27.63;;;5.20;;
27491;SDS011;14927;51.210;6.838;2023-02-01T05:19:43;21.92;;;4.53;;
27491;SDS011;14927;51.210;6.838;2023-02-01T05:22:28;26.65;;;4.65;;
27491;SDS011;14927;51.210;6.838;2023-02-01T05:25:12;30.90;;;4.95;;
27491;SDS011;14927;51.210;6.838;2023-02-01T05:27:57;25.63;;;4.90;;
27491;SDS011;14927;51.210;6.838;2023-02-01T05:30:42;25.40;;;5.25;;
27491;SDS011;14927;51.210;6.838;2023-02-01T05:33:27;24.77;;;4.55;;
27491;SDS011;14927;51.210;6.838;2023-02-01T05:36:11;19.38;;;4.30;;
27491;SDS011;14927;51.210;6.838;2023-02-01T05:38:56;25.98;;;4.78;;
27491;SDS011;14927;51.210;6.838;2023-02-01T05:41:41;25.85;;;4.65;;
27491;SDS011;14927;51.210;6.838;2023-02-01T05:44:25;31.15;;;4.82;;
27491;SDS011;14927;51.210;6.838;2023-02-01T05:47:10;29.63;;;5.53;;
27491;SDS011;14927;51.210;6.838;2023-02-01T05:49:56;24.15;;;4.68;;
27491;SDS011;14927;51.210;6.838;2023-02-01T05:52:41;31.00;;;5.32;;
27491;SDS011;14927;51.210;6.838;2023-02-01T05:55:25;23.13;;;4.93;;
27491;SDS011;14927;51.210;6.838;2023-02-01T05:58:11;25.30;;;4.80;;
27491;SDS011;14927;51.210;6.838;2023-02-01T06:01:02;28.05;;;5.00;;
27491;SDS011;14927;51.210;6.838;2023-02-01T06:03:51;26.13;;;4.50;;
27491;SDS011;14927;51.210;6.838;2023-02-01T06:06:42;31.52;;;5.50;;
27491;SDS011;14927;51.210;6.838;2023-02-01T06:09:50;27.58;;;5.00;;
27491;SDS011;14927;51.210;6.838;2023-02-01T06:12:35;24.13;;;4.13;;
27491;SDS011;14927;51.210;6.838;2023-02-01T06:15:20;27.48;;;4.65;;
27491;SDS011;14927;51.210;6.838;2023-02-01T06:18:05;26.27;;;4.32;;
27491;SDS011;14927;51.210;6.838;2023-02-01T06:20:54;24.58;;;4.18;;
27491;SDS011;14927;51.210;6.838;2023-02-01T06:23:40;21.77;;;4.97;;
27491;SDS011;14927;51.210;6.838;2023-02-01T06:26:25;17.45;;;3.78;;
27491;SDS011;14927;51.210;6.838;2023-02-01T06:29:12;25.02;;;5.05;;
27491;SDS011;14927;51.210;6.838;2023-02-01T06:31:56;20.05;;;4.47;;
27491;SDS011;14927;51.210;6.838;2023-02-01T06:34:41;21.77;;;4.95;;
27491;SDS011;14927;51.210;6.838;2023-02-01T06:37:26;20.63;;;4.70;;
27491;SDS011;14927;51.210;6.838;2023-02-01T06:40:14;28.70;;;5.70;;
27491;SDS011;14927;51.210;6.838;2023-02-01T06:42:59;24.63;;;4.20;;
27491;SDS011;14927;51.210;6.838;2023-02-01T06:45:43;25.00;;;4.65;;
27491;SDS011;14927;51.210;6.838;2023-02-01T06:48:28;27.10;;;4.50;;
27491;SDS011;14927;51.210;6.838;2023-02-01T06:51:21;26.00;;;5.07;;
27491;SDS011;14927;51.210;6.838;2023-02-01T06:54:08;24.02;;;4.82;;
27491;SDS011;14927;51.210;6.838;2023-02-01T06:56:53;24.70;;;4.72;;
27491;SDS011;14927;51.210;6.838;2023-02-01T06:59:37;23.83;;;4.90;;
27491;SDS011;14927;51.210;6.838;2023-02-01T07:02:22;25.15;;;5.40;;
27491;SDS011;14927;51.210;6.838;2023-02-01T07:05:07;25.02;;;5.55;;
27491;SDS011;14927;51.210;6.838;2023-02-01T07:07:52;20.17;;;4.78;;
27491;SDS011;14927;51.210;6.838;2023-02-01T07:10:37;20.10;;;4.43;;
27491;SDS011;14927;51.210;6.838;2023-02-01T07:13:21;23.92;;;4.57;;
27491;SDS011;14927;51.210;6.838;2023-02-01T07:16:09;16.98;;;3.97;;
27491;SDS011;14927;51.210;6.838;2023-02-01T07:18:57;23.10;;;3.85;;
27491;SDS011;14927;51.210;6.838;2023-02-01T07:21:43;27.25;;;4.43;;
27491;SDS011;14927;51.210;6.838;2023-02-01T07:24:28;24.05;;;4.95;;
27491;SDS011;14927;51.210;6.838;2023-02-01T07:27:14;21.02;;;4.70;;
27491;SDS011;14927;51.210;6.838;2023-02-01T07:29:59;21.70;;;4.30;;
27491;SDS011;14927;51.210;6.838;2023-02-01T07:32:45;28.67;;;4.75;;
27491;SDS011;14927;51.210;6.838;2023-02-01T07:35:30;17.52;;;4.05;;
27491;SDS011;14927;51.210;6.838;2023-02-01T07:38:15;17.73;;;3.83;;
27491;SDS011;14927;51.210;6.838;2023-02-01T07:41:00;25.77;;;5.30;;
27491;SDS011;14927;51.210;6.838;2023-02-01T07:43:47;26.77;;;4.95;;
27491;SDS011;14927;51.210;6.838;2023-02-01T07:46:31;26.52;;;4.25;;
27491;SDS011;14927;51.210;6.838;2023-02-01T07:49:16;33.28;;;4.90;;
27491;SDS011;14927;51.210;6.838;2023-02-01T07:52:01;28.70;;;5.20;;
27491;SDS011;14927;51.210;6.838;2023-02-01T07:54:46;26.27;;;4.45;;
27491;SDS011;14927;51.210;6.838;2023-02-01T07:57:31;24.05;;;5.25;;
27491;SDS011;14927;51.210;6.838;2023-02-01T08:00:16;20.48;;;4.47;;
27491;SDS011;14927;51.210;6.838;2023-02-01T08:03:20;22.75;;;4.43;;
27491;SDS011;14927;51.210;6.838;2023-02-01T08:06:05;20.08;;;4.07;;
27491;SDS011;14927;51.210;6.838;2023-02-01T08:08:50;21.80;;;4.15;;
27491;SDS011;14927;51.210;6.838;2023-02-01T08:11:39;24.67;;;4.45;;
27491;SDS011;14927;51.210;6.838;2023-02-01T08:14:33;21.63;;;3.78;;
27491;SDS011;14927;51.210;6.838;2023-02-01T08:17:18;23.13;;;4.57;;
27491;SDS011;14927;51.210;6.838;2023-02-01T08:20:03;30.88;;;5.22;;
27491;SDS011;14927;51.210;6.838;2023-02-01T08:22:49;27.70;;;5.07;;
27491;SDS011;14927;51.210;6.838;2023-02-01T08:25:34;24.15;;;4.13;;
27491;SDS011;14927;51.210;6.838;2023-02-01T08:28:19;29.33;;;4.78;;
27491;SDS011;14927;51.210;6.838;2023-02-01T08:31:08;24.33;;;3.92;;
27491;SDS011;14927;51.210;6.838;2023-02-01T08:34:00;17.13;;;3.78;;
27491;SDS011;14927;51.210;6.838;2023-02-01T08:36:47;16.70;;;3.90;;
27491;SDS011;14927;51.210;6.838;2023-02-01T08:39:32;28.05;;;4.88;;
27491;SDS011;14927;51.210;6.838;2023-02-01T08:42:17;21.70;;;4.20;;
27491;SDS011;14927;51.210;6.838;2023-02-01T08:45:22;26.25;;;4.40;;
27491;SDS011;14927;51.210;6.838;2023-02-01T08:48:13;23.83;;;5.13;;
27491;SDS011;14927;51.210;6.838;2023-02-01T08:51:00;20.98;;;4.38;;
27491;SDS011;14927;51.210;6.838;2023-02-01T08:53:50;28.63;;;4.50;;
27491;SDS011;14927;51.210;6.838;2023-02-01T08:56:35;23.30;;;4.82;;
27491;SDS011;14927;51.210;6.838;2023-02-01T08:59:20;18.85;;;4.10;;
27491;SDS011;14927;51.210;6.838;2023-02-01T09:02:05;21.60;;;4.78;;
27491;SDS011;14927;51.210;6.838;2023-02-01T09:04:52;23.10;;;4.32;;
27491;SDS011;14927;51.210;6.838;2023-02-01T09:07:37;25.88;;;4.97;;
27491;SDS011;14927;51.210;6.838;2023-02-01T09:10:22;27.48;;;4.93;;
27491;SDS011;14927;51.210;6.838;2023-02-01T09:13:12;20.63;;;3.88;;
27491;SDS011;14927;51.210;6.838;2023-02-01T09:15:56;32.30;;;4.38;;
27491;SDS011;14927;51.210;6.838;2023-02-01T09:18:43;21.48;;;4.25;;
27491;SDS011;14927;51.210;6.838;2023-02-01T09:21:31;25.88;;;4.38;;
27491;SDS011;14927;51.210;6.838;2023-02-01T09:24:17;18.20;;;3.97;;
27491;SDS011;14927;51.210;6.838;2023-02-01T09:27:01;25.55;;;4.85;;
27491;SDS011;14927;51.210;6.838;2023-02-01T09:29:46;20.95;;;3.92;;
27491;SDS011;14927;51.210;6.838;2023-02-01T09:32:36;19.02;;;3.92;;
27491;SDS011;14927;51.210;6.838;2023-02-01T09:35:20;26.45;;;4.05;;
27491;SDS011;14927;51.210;6.838;2023-02-01T09:38:05;22.00;;;4.22;;
27491;SDS011;14927;51.210;6.838;2023-02-01T09:40:50;21.08;;;4.43;;
27491;SDS011;14927;51.210;6.838;2023-02-01T09:43:37;24.85;;;4.75;;
27491;SDS011;14927;51.210;6.838;2023-02-01T09:46:35;24.77;;;4.47;;
27491;SDS011;14927;51.210;6.838;2023-02-01T09:49:20;19.88;;;4.78;;
27491;SDS011;14927;51.210;6.838;2023-02-01T09:52:15;25.75;;;3.95;;
27491;SDS011;14927;51.210;6.838;2023-02-01T09:55:04;22.92;;;3.47;;
27491;SDS011;14927;51.210;6.838;2023-02-01T09:58:05;24.55;;;5.25;;
27491;SDS011;14927;51.210;6.838;2023-02-01T10:01:21;26.60;;;4.35;;
27491;SDS011;14927;51.210;6.838;2023-02-01T10:04:11;20.88;;;4.00;;
27491;SDS011;14927;51.210;6.838;2023-02-01T10:07:13;22.25;;;4.57;;
27491;SDS011;14927;51.210;6.838;2023-02-01T10:26:18;23.23;;;4.57;;
27491;SDS011;14927;51.210;6.838;2023-02-01T10:29:08;20.08;;;4.07;;
27491;SDS011;14927;51.210;6.838;2023-02-01T10:32:03;22.38;;;4.85;;
27491;SDS011;14927;51.210;6.838;2023-02-01T10:35:08;23.88;;;3.90;;
27491;SDS011;14927;51.210;6.838;2023-02-01T10:41:34;22.63;;;4.43;;
27491;SDS011;14927;51.210;6.838;2023-02-01T10:47:14;18.42;;;3.95;;
27491;SDS011;14927;51.210;6.838;2023-02-01T10:53:13;19.33;;;4.15;;
27491;SDS011;14927;51.210;6.838;2023-02-01T10:56:11;17.30;;;4.10;;
27491;SDS011;14927;51.210;6.838;2023-02-01T10:59:01;19.88;;;4.05;;
27491;SDS011;14927;51.210;6.838;2023-02-01T11:01:48;22.20;;;4.53;;
27491;SDS011;14927;51.210;6.838;2023-02-01T11:04:35;25.52;;;5.30;;
27491;SDS011;14927;51.210;6.838;2023-02-01T11:07:23;27.00;;;5.20;;
27491;SDS011;14927;51.210;6.838;2023-02-01T11:10:09;17.23;;;3.95;;
27491;SDS011;14927;51.210;6.838;2023-02-01T11:13:21;16.67;;;3.80;;
27491;SDS011;14927;51.210;6.838;2023-02-01T11:16:19;23.23;;;4.47;;
27491;SDS011;14927;51.210;6.838;2023-02-01T11:19:05;24.58;;;4.20;;
27491;SDS011;14927;51.210;6.838;2023-02-01T11:21:51;22.55;;;3.55;;
27491;SDS011;14927;51.210;6.838;2023-02-01T11:24:44;20.95;;;4.03;;
27491;SDS011;14927;51.210;6.838;2023-02-01T11:27:31;24.77;;;3.55;;
27491;SDS011;14927;51.210;6.838;2023-02-01T11:30:27;24.48;;;4.28;;
27491;SDS011;14927;51.210;6.838;2023-02-01T11:33:19;22.48;;;3.72;;
27491;SDS011;14927;51.210;6.838;2023-02-01T11:36:20;20.88;;;4.43;;
27491;SDS011;14927;51.210;6.838;2023-02-01T11:39:23;16.85;;;3.42;;
27491;SDS011;14927;51.210;6.838;2023-02-01T11:42:15;22.13;;;3.75;;
27491;SDS011;14927;51.210;6.838;2023-02-01T11:45:34;17.20;;;3.78;;
27491;SDS011;14927;51.210;6.838;2023-02-01T11:48:18;24.42;;;4.57;;
27491;SDS011;14927;51.210;6.838;2023-02-01T12:01:05;20.08;;;3.15;;
27491;SDS011;14927;51.210;6.838;2023-02-01T12:10:44;20.02;;;3.35;;
27491;SDS011;14927;51.210;6.838;2023-02-01T12:23:58;18.48;;;3.50;;
27491;SDS011;14927;51.210;6.838;2023-02-01T12:43:48;16.08;;;3.70;;
27491;SDS011;14927;51.210;6.838;2023-02-01T12:46:52;16.85;;;3.58;;
27491;SDS011;14927;51.210;6.838;2023-02-01T12:52:52;24.05;;;4.40;;
27491;SDS011;14927;51.210;6.838;2023-02-01T12:56:06;20.30;;;3.92;;
27491;SDS011;14927;51.210;6.838;2023-02-01T12:58:58;21.00;;;4.25;;
27491;SDS011;14927;51.210;6.838;2023-02-01T13:01:49;18.75;;;3.55;;
27491;SDS011;14927;51.210;6.838;2023-02-01T13:04:52;13.27;;;3.40;;
27491;SDS011;14927;51.210;6.838;2023-02-01T13:08:10;18.63;;;3.60;;
27491;SDS011;14927;51.210;6.838;2023-02-01T13:11:04;19.80;;;3.50;;
27491;SDS011;14927;51.210;6.838;2023-02-01T13:14:15;19.83;;;3.88;;
27491;SDS011;14927;51.210;6.838;2023-02-01T13:17:21;17.35;;;3.50;;
27491;SDS011;14927;51.210;6.838;2023-02-01T13:20:21;12.50;;;3.30;;
27491;SDS011;14927;51.210;6.838;2023-02-01T13:23:25;21.83;;;4.35;;
27491;SDS011;14927;51.210;6.838;2023-02-01T13:29:01;16.58;;;3.00;;
27491;SDS011;14927;51.210;6.838;2023-02-01T13:31:59;20.80;;;3.05;;
27491;SDS011;14927;51.210;6.838;2023-02-01T13:35:15;15.73;;;3.22;;
27491;SDS011;14927;51.210;6.838;2023-02-01T13:38:49;15.45;;;3.13;;
27491;SDS011;14927;51.210;6.838;2023-02-01T13:42:02;14.60;;;3.30;;
27491;SDS011;14927;51.210;6.838;2023-02-01T13:45:24;14.25;;;2.80;;
27491;SDS011;14927;51.210;6.838;2023-02-01T13:48:29;20.10;;;2.95;;
27491;SDS011;14927;51.210;6.838;2023-02-01T13:51:42;16.77;;;3.05;;
27491;SDS011;14927;51.210;6.838;2023-02-01T13:54:40;21.20;;;3.88;;
27491;SDS011;14927;51.210;6.838;2023-02-01T13:57:38;21.17;;;3.58;;
27491;SDS011;14927;51.210;6.838;2023-02-01T14:00:34;15.10;;;2.90;;
27491;SDS011;14927;51.210;6.838;2023-02-01T14:03:22;18.15;;;3.35;;
27491;SDS011;14927;51.210;6.838;2023-02-01T14:09:18;17.58;;;2.53;;
27491;SDS011;14927;51.210;6.838;2023-02-01T14:15:31;19.77;;;3.47;;
27491;SDS011;14927;51.210;6.838;2023-02-01T14:24:26;18.20;;;2.80;;
27491;SDS011;14927;51.210;6.838;2023-02-01T14:27:19;24.98;;;2.92;;
27491;SDS011;14927;51.210;6.838;2023-02-01T14:30:12;13.82;;;2.90;;
27491;SDS011;14927;51.210;6.838;2023-02-01T14:33:00;15.43;;;3.45;;
27491;SDS011;14927;51.210;6.838;2023-02-01T14:36:12;9.65;;;2.58;;
27491;SDS011;14927;51.210;6.838;2023-02-01T14:38:59;15.15;;;2.55;;
27491;SDS011;14927;51.210;6.838;2023-02-01T14:41:45;15.55;;;2.55;;
27491;SDS011;14927;51.210;6.838;2023-02-01T14:44:32;20.00;;;3.15;;
27491;SDS011;14927;51.210;6.838;2023-02-01T14:55:56;11.27;;;2.35;;
27491;SDS011;14927;51.210;6.838;2023-02-01T15:01:50;13.20;;;2.80;;
27491;SDS011;14927;51.210;6.838;2023-02-01T15:04:46;15.57;;;2.85;;
27491;SDS011;14927;51.210;6.838;2023-02-01T15:07:41;14.50;;;2.83;;
27491;SDS011;14927;51.210;6.838;2023-02-01T15:10:27;14.75;;;3.58;;
27491;SDS011;14927;51.210;6.838;2023-02-01T15:13:20;17.73;;;2.85;;
27491;SDS011;14927;51.210;6.838;2023-02-01T15:16:12;17.25;;;3.33;;
27491;SDS011;14927;51.210;6.838;2023-02-01T15:19:09;19.77;;;3.15;;
27491;SDS011;14927;51.210;6.838;2023-02-01T15:22:00;22.95;;;3.45;;
27491;SDS011;14927;51.210;6.838;2023-02-01T15:24:51;13.25;;;2.92;;
27491;SDS011;14927;51.210;6.838;2023-02-01T15:27:38;21.92;;;3.42;;
27491;SDS011;14927;51.210;6.838;2023-02-01T15:30:25;17.50;;;3.75;;
27491;SDS011;14927;51.210;6.838;2023-02-01T15:33:17;19.58;;;3.35;;
27491;SDS011;14927;51.210;6.838;2023-02-01T15:36:18;20.20;;;3.30;;
27491;SDS011;14927;51.210;6.838;2023-02-01T15:39:25;16.90;;;3.15;;
27491;SDS011;14927;51.210;6.838;2023-02-01T15:42:11;20.58;;;3.35;;
27491;SDS011;14927;51.210;6.838;2023-02-01T15:45:02;12.57;;;2.92;;
27491;SDS011;14927;51.210;6.838;2023-02-01T15:47:49;20.05;;;3.65;;
27491;SDS011;14927;51.210;6.838;2023-02-01T15:50:38;19.60;;;3.03;;
27491;SDS011;14927;51.210;6.838;2023-02-01T15:53:25;21.52;;;3.60;;
27491;SDS011;14927;51.210;6.838;2023-02-01T15:56:14;19.23;;;5.47;;
27491;SDS011;14927;51.210;6.838;2023-02-01T15:59:12;19.95;;;3.90;;
27491;SDS011;14927;51.210;6.838;2023-02-01T16:02:01;17.05;;;2.78;;
27491;SDS011;14927;51.210;6.838;2023-02-01T16:04:46;21.45;;;3.92;;
27491;SDS011;14927;51.210;6.838;2023-02-01T16:07:34;19.15;;;3.25;;
27491;SDS011;14927;51.210;6.838;2023-02-01T16:10:26;22.83;;;3.15;;
27491;SDS011;14927;51.210;6.838;2023-02-01T16:13:25;17.67;;;2.97;;
27491;SDS011;14927;51.210;6.838;2023-02-01T16:16:10;21.65;;;4.03;;
27491;SDS011;14927;51.210;6.838;2023-02-01T16:19:03;17.42;;;3.45;;
27491;SDS011;14927;51.210;6.838;2023-02-01T16:21:48;24.52;;;4.15;;
27491;SDS011;14927;51.210;6.838;2023-02-01T16:24:33;22.80;;;3.53;;
27491;SDS011;14927;51.210;6.838;2023-02-01T16:27:17;19.13;;;3.50;;
27491;SDS011;14927;51.210;6.838;2023-02-01T16:30:02;23.27;;;3.65;;
27491;SDS011;14927;51.210;6.838;2023-02-01T16:35:50;16.05;;;2.88;;
27491;SDS011;14927;51.210;6.838;2023-02-01T16:38:36;14.68;;;2.80;;
27491;SDS011;14927;51.210;6.838;2023-02-01T16:41:22;23.70;;;4.18;;
27491;SDS011;14927;51.210;6.838;2023-02-01T16:44:07;15.88;;;3.42;;
27491;SDS011;14927;51.210;6.838;2023-02-01T16:46:52;17.20;;;3.47;;
27491;SDS011;14927;51.210;6.838;2023-02-01T16:49:36;15.50;;;2.72;;
27491;SDS011;14927;51.210;6.838;2023-02-01T16:52:24;18.13;;;3.55;;
27491;SDS011;14927;51.210;6.838;2023-02-01T16:55:13;21.15;;;4.22;;
27491;SDS011;14927;51.210;6.838;2023-02-01T16:58:00;23.90;;;3.78;;
27491;SDS011;14927;51.210;6.838;2023-02-01T17:00:45;14.65;;;3.40;;
27491;SDS011;14927;51.210;6.838;2023-02-01T17:03:30;20.27;;;3.55;;
27491;SDS011;14927;51.210;6.838;2023-02-01T17:06:16;19.15;;;4.07;;
27491;SDS011;14927;51.210;6.838;2023-02-01T17:09:04;18.15;;;3.60;;
27491;SDS011;14927;51.210;6.838;2023-02-01T17:11:49;16.70;;;3.22;;
27491;SDS011;14927;51.210;6.838;2023-02-01T17:14:34;22.85;;;3.78;;
27491;SDS011;14927;51.210;6.838;2023-02-01T17:17:30;21.17;;;3.45;;
27491;SDS011;14927;51.210;6.838;2023-02-01T17:20:26;15.50;;;3.55;;
27491;SDS011;14927;51.210;6.838;2023-02-01T17:23:16;19.35;;;3.17;;
27491;SDS011;14927;51.210;6.838;2023-02-01T17:26:02;21.77;;;3.60;;
27491;SDS011;14927;51.210;6.838;2023-02-01T17:28:47;22.10;;;3.80;;
27491;SDS011;14927;51.210;6.838;2023-02-01T17:31:32;18.98;;;2.97;;
27491;SDS011;14927;51.210;6.838;2023-02-01T17:34:49;20.77;;;4.00;;
27491;SDS011;14927;51.210;6.838;2023-02-01T17:37:35;18.17;;;3.63;;
27491;SDS011;14927;51.210;6.838;2023-02-01T17:40:20;20.88;;;3.95;;
27491;SDS011;14927;51.210;6.838;2023-02-01T17:43:20;16.42;;;3.10;;
27491;SDS011;14927;51.210;6.838;2023-02-01T17:48:57;19.55;;;3.53;;
27491;SDS011;14927;51.210;6.838;2023-02-01T17:51:42;15.80;;;2.70;;
27491;SDS011;14927;51.210;6.838;2023-02-01T17:54:27;17.83;;;3.22;;
27491;SDS011;14927;51.210;6.838;2023-02-01T17:57:12;19.95;;;3.38;;
27491;SDS011;14927;51.210;6.838;2023-02-01T17:59:59;14.00;;;3.13;;
27491;SDS011;14927;51.210;6.838;2023-02-01T18:02:45;19.27;;;3.67;;
27491;SDS011;14927;51.210;6.838;2023-02-01T18:05:34;15.65;;;3.10;;
27491;SDS011;14927;51.210;6.838;2023-02-01T18:08:33;19.50;;;3.65;;
27491;SDS011;14927;51.210;6.838;2023-02-01T18:11:23;15.93;;;3.38;;
27491;SDS011;14927;51.210;6.838;2023-02-01T18:19:20;24.48;;;3.47;;
27491;SDS011;14927;51.210;6.838;2023-02-01T18:22:05;17.95;;;3.33;;
27491;SDS011;14927;51.210;6.838;2023-02-01T18:24:59;13.18;;;3.67;;
27491;SDS011;14927;51.210;6.838;2023-02-01T18:27:44;22.52;;;3.90;;
27491;SDS011;14927;51.210;6.838;2023-02-01T18:57:33;26.00;;;4.05;;
27491;SDS011;14927;51.210;6.838;2023-02-01T19:00:19;22.40;;;4.00;;
27491;SDS011;14927;51.210;6.838;2023-02-01T19:03:04;22.42;;;4.05;;
27491;SDS011;14927;51.210;6.838;2023-02-01T19:05:49;15.38;;;3.60;;
27491;SDS011;14927;51.210;6.838;2023-02-01T19:08:34;19.63;;;4.47;;
27491;SDS011;14927;51.210;6.838;2023-02-01T19:11:19;20.70;;;3.88;;
27491;SDS011;14927;51.210;6.838;2023-02-01T19:14:03;22.05;;;4.32;;
27491;SDS011;14927;51.210;6.838;2023-02-01T19:16:49;15.23;;;3.20;;
27491;SDS011;14927;51.210;6.838;2023-02-01T19:19:34;19.55;;;4.13;;
27491;SDS011;14927;51.210;6.838;2023-02-01T19:22:19;19.52;;;3.95;;
27491;SDS011;14927;51.210;6.838;2023-02-01T19:25:05;17.20;;;3.35;;
27491;SDS011;14927;51.210;6.838;2023-02-01T19:27:52;22.38;;;4.20;;
27491;SDS011;14927;51.210;6.838;2023-02-01T19:30:36;19.77;;;3.65;;
27491;SDS011;14927;51.210;6.838;2023-02-01T19:33:25;18.42;;;3.95;;
27491;SDS011;14927;51.210;6.838;2023-02-01T19:36:09;19.15;;;3.42;;
27491;SDS011;14927;51.210;6.838;2023-02-01T19:38:54;20.35;;;4.22;;
27491;SDS011;14927;51.210;6.838;2023-02-01T19:41:48;15.13;;;3.72;;